KDRI/DRI METAR and TAF weather

Enter ICAO airport designator
Station Type Date Time Source
KDRI METAR 2019/12/13 22:35 UTC NOAA

KDRI 132235Z AUTO 00000KT 10SM SCT031 19/12 A2982 RMK AO2 T01850120


Station Type Date Time Source
KDRI Decoded METAR 2019/12/13 22:35 UTC NOAA

De Ridder, Beauregard Parish Airport, LA, United States (KDRI) 30-49-54N 093-20-23W
Dec 13, 2019 - 05:35 PM EST / 2019.12.13 2235 UTC
Wind: Calm:0
Visibility: 10 mile(s):0
Sky conditions: partly cloudy
Temperature: 65.3 F (18.5 C)
Dew Point: 53.6 F (12.0 C)
Relative Humidity: 65%
Pressure (altimeter): 29.82 in. Hg (1009 hPa)
ob: KDRI 132235Z AUTO 00000KT 10SM SCT031 19/12 A2982 RMK AO2 T01850120
cycle: 22

Station Type Date Time Source
KDRI TAF UTC NOAA

Error!

Example: see airport list